sensor_id;sensor_type;location;lat;lon;timestamp;temperature;humidity
24217;DHT22;12356;49.386;8.688;2023-02-28T00:00:49;2.80;3.10
24217;DHT22;12356;49.386;8.688;2023-02-28T00:03:20;2.70;3.10
24217;DHT22;12356;49.386;8.688;2023-02-28T00:05:50;2.80;3.20
24217;DHT22;12356;49.386;8.688;2023-02-28T00:08:21;2.80;4.00
24217;DHT22;12356;49.386;8.688;2023-02-28T00:10:51;2.70;3.40
24217;DHT22;12356;49.386;8.688;2023-02-28T00:13:22;2.70;3.80
24217;DHT22;12356;49.386;8.688;2023-02-28T00:16:07;2.70;3.80
24217;DHT22;12356;49.386;8.688;2023-02-28T00:18:39;2.70;4.70
24217;DHT22;12356;49.386;8.688;2023-02-28T00:21:10;2.70;4.60
24217;DHT22;12356;49.386;8.688;2023-02-28T00:23:40;2.70;4.10
24217;DHT22;12356;49.386;8.688;2023-02-28T00:26:11;2.70;3.90
24217;DHT22;12356;49.386;8.688;2023-02-28T00:28:41;2.70;4.20
24217;DHT22;12356;49.386;8.688;2023-02-28T00:31:12;2.60;4.30
24217;DHT22;12356;49.386;8.688;2023-02-28T00:33:43;2.60;4.30
24217;DHT22;12356;49.386;8.688;2023-02-28T00:36:13;2.60;4.30
24217;DHT22;12356;49.386;8.688;2023-02-28T00:38:44;2.50;4.30
24217;DHT22;12356;49.386;8.688;2023-02-28T00:41:14;2.50;4.50
24217;DHT22;12356;49.386;8.688;2023-02-28T00:43:45;2.40;4.60
24217;DHT22;12356;49.386;8.688;2023-02-28T00:46:15;2.40;4.40
24217;DHT22;12356;49.386;8.688;2023-02-28T00:48:46;2.40;4.70
24217;DHT22;12356;49.386;8.688;2023-02-28T00:51:17;2.40;5.10
24217;DHT22;12356;49.386;8.688;2023-02-28T00:53:47;2.40;4.90
24217;DHT22;12356;49.386;8.688;2023-02-28T00:56:18;2.50;5.50
24217;DHT22;12356;49.386;8.688;2023-02-28T00:58:49;2.50;5.40
24217;DHT22;12356;49.386;8.688;2023-02-28T01:01:19;2.40;5.50
24217;DHT22;12356;49.386;8.688;2023-02-28T01:03:50;2.40;5.60
24217;DHT22;12356;49.386;8.688;2023-02-28T01:06:20;2.40;5.70
24217;DHT22;12356;49.386;8.688;2023-02-28T01:08:51;2.50;5.60
24217;DHT22;12356;49.386;8.688;2023-02-28T01:11:21;2.50;5.90
24217;DHT22;12356;49.386;8.688;2023-02-28T01:13:52;2.50;5.70
24217;DHT22;12356;49.386;8.688;2023-02-28T01:16:23;2.50;6.00
24217;DHT22;12356;49.386;8.688;2023-02-28T01:18:54;2.50;6.40
24217;DHT22;12356;49.386;8.688;2023-02-28T01:21:24;2.60;5.90
24217;DHT22;12356;49.386;8.688;2023-02-28T01:23:56;2.50;5.70
24217;DHT22;12356;49.386;8.688;2023-02-28T01:26:27;2.50;5.90
24217;DHT22;12356;49.386;8.688;2023-02-28T01:28:58;2.50;6.00
24217;DHT22;12356;49.386;8.688;2023-02-28T01:31:28;2.50;6.30
24217;DHT22;12356;49.386;8.688;2023-02-28T01:33:59;2.30;6.30
24217;DHT22;12356;49.386;8.688;2023-02-28T01:36:30;2.40;6.90
24217;DHT22;12356;49.386;8.688;2023-02-28T01:39:00;2.40;7.30
24217;DHT22;12356;49.386;8.688;2023-02-28T01:41:33;2.40;6.90
24217;DHT22;12356;49.386;8.688;2023-02-28T01:46:56;2.20;7.10
24217;DHT22;12356;49.386;8.688;2023-02-28T01:49:27;2.20;7.10
24217;DHT22;12356;49.386;8.688;2023-02-28T01:51:57;2.20;7.10
24217;DHT22;12356;49.386;8.688;2023-02-28T01:54:31;2.10;7.20
24217;DHT22;12356;49.386;8.688;2023-02-28T01:57:10;2.10;7.20
24217;DHT22;12356;49.386;8.688;2023-02-28T02:00:00;2.00;7.60
24217;DHT22;12356;49.386;8.688;2023-02-28T02:02:37;2.00;7.60
24217;DHT22;12356;49.386;8.688;2023-02-28T02:05:12;1.90;8.40
24217;DHT22;12356;49.386;8.688;2023-02-28T02:07:46;1.90;8.40
24217;DHT22;12356;49.386;8.688;2023-02-28T02:10:42;2.00;8.60
24217;DHT22;12356;49.386;8.688;2023-02-28T02:19:16;1.90;9.00
24217;DHT22;12356;49.386;8.688;2023-02-28T02:22:06;2.00;8.60
24217;DHT22;12356;49.386;8.688;2023-02-28T02:34:26;1.90;9.20
24217;DHT22;12356;49.386;8.688;2023-02-28T02:42:56;1.80;9.00
24217;DHT22;12356;49.386;8.688;2023-02-28T02:45:37;1.80;9.20
24217;DHT22;12356;49.386;8.688;2023-02-28T02:48:12;1.90;9.10
24217;DHT22;12356;49.386;8.688;2023-02-28T02:50:46;1.80;9.20
24217;DHT22;12356;49.386;8.688;2023-02-28T02:53:21;1.80;9.40
24217;DHT22;12356;49.386;8.688;2023-02-28T02:55:54;1.70;9.20
24217;DHT22;12356;49.386;8.688;2023-02-28T02:58:29;1.70;9.40
24217;DHT22;12356;49.386;8.688;2023-02-28T03:01:02;1.70;9.50
24217;DHT22;12356;49.386;8.688;2023-02-28T03:03:34;1.60;9.70
24217;DHT22;12356;49.386;8.688;2023-02-28T03:06:05;1.60;10.30
24217;DHT22;12356;49.386;8.688;2023-02-28T03:08:37;1.60;9.70
24217;DHT22;12356;49.386;8.688;2023-02-28T03:11:13;1.70;9.90
24217;DHT22;12356;49.386;8.688;2023-02-28T03:20:01;1.60;10.00
24217;DHT22;12356;49.386;8.688;2023-02-28T03:22:49;1.60;10.40
24217;DHT22;12356;49.386;8.688;2023-02-28T03:28:38;1.50;10.50
24217;DHT22;12356;49.386;8.688;2023-02-28T03:31:19;1.60;10.50
24217;DHT22;12356;49.386;8.688;2023-02-28T03:34:04;1.60;10.60
24217;DHT22;12356;49.386;8.688;2023-02-28T03:36:39;1.60;10.30
24217;DHT22;12356;49.386;8.688;2023-02-28T03:39:37;1.60;10.50
24217;DHT22;12356;49.386;8.688;2023-02-28T03:42:09;1.60;10.50
24217;DHT22;12356;49.386;8.688;2023-02-28T03:44:44;1.40;10.90
24217;DHT22;12356;49.386;8.688;2023-02-28T03:47:35;1.40;11.10
24217;DHT22;12356;49.386;8.688;2023-02-28T03:50:18;1.40;11.20
24217;DHT22;12356;49.386;8.688;2023-02-28T03:52:55;1.40;11.40
24217;DHT22;12356;49.386;8.688;2023-02-28T03:55:44;1.40;11.40
24217;DHT22;12356;49.386;8.688;2023-02-28T03:58:24;1.40;11.50
24217;DHT22;12356;49.386;8.688;2023-02-28T04:01:09;1.50;11.70
24217;DHT22;12356;49.386;8.688;2023-02-28T04:03:42;1.40;11.50
24217;DHT22;12356;49.386;8.688;2023-02-28T04:06:16;1.50;11.70
24217;DHT22;12356;49.386;8.688;2023-02-28T04:08:48;1.40;11.70
24217;DHT22;12356;49.386;8.688;2023-02-28T04:13:51;1.50;11.60
24217;DHT22;12356;49.386;8.688;2023-02-28T04:16:22;1.40;11.20
24217;DHT22;12356;49.386;8.688;2023-02-28T04:18:53;1.40;11.50
24217;DHT22;12356;49.386;8.688;2023-02-28T04:21:23;1.40;11.30
24217;DHT22;12356;49.386;8.688;2023-02-28T04:23:54;1.30;11.50
24217;DHT22;12356;49.386;8.688;2023-02-28T04:26:25;1.30;12.00
24217;DHT22;12356;49.386;8.688;2023-02-28T04:28:55;1.30;11.90
24217;DHT22;12356;49.386;8.688;2023-02-28T04:31:26;1.30;11.80
24217;DHT22;12356;49.386;8.688;2023-02-28T04:33:57;1.40;11.80
24217;DHT22;12356;49.386;8.688;2023-02-28T04:36:28;1.40;11.90
24217;DHT22;12356;49.386;8.688;2023-02-28T04:38:58;1.40;11.90
24217;DHT22;12356;49.386;8.688;2023-02-28T04:41:29;1.50;12.10
24217;DHT22;12356;49.386;8.688;2023-02-28T04:43:59;1.50;11.70
24217;DHT22;12356;49.386;8.688;2023-02-28T04:46:30;1.50;12.10
24217;DHT22;12356;49.386;8.688;2023-02-28T04:49:01;1.50;11.40
24217;DHT22;12356;49.386;8.688;2023-02-28T04:51:31;1.50;11.80
24217;DHT22;12356;49.386;8.688;2023-02-28T04:54:02;1.50;11.30
24217;DHT22;12356;49.386;8.688;2023-02-28T04:56:32;1.40;11.30
24217;DHT22;12356;49.386;8.688;2023-02-28T04:59:03;1.50;11.80
24217;DHT22;12356;49.386;8.688;2023-02-28T05:01:34;1.50;11.70
24217;DHT22;12356;49.386;8.688;2023-02-28T05:04:06;1.50;11.60
24217;DHT22;12356;49.386;8.688;2023-02-28T05:06:37;1.50;11.70
24217;DHT22;12356;49.386;8.688;2023-02-28T05:09:07;1.50;11.40
24217;DHT22;12356;49.386;8.688;2023-02-28T05:11:38;1.50;11.60
24217;DHT22;12356;49.386;8.688;2023-02-28T05:14:13;1.60;11.20
24217;DHT22;12356;49.386;8.688;2023-02-28T05:16:44;1.60;11.20
24217;DHT22;12356;49.386;8.688;2023-02-28T05:19:14;1.80;10.90
24217;DHT22;12356;49.386;8.688;2023-02-28T05:21:54;1.70;10.70
24217;DHT22;12356;49.386;8.688;2023-02-28T05:24:24;1.60;10.80
24217;DHT22;12356;49.386;8.688;2023-02-28T05:26:55;1.70;11.10
24217;DHT22;12356;49.386;8.688;2023-02-28T05:29:26;1.70;10.60
24217;DHT22;12356;49.386;8.688;2023-02-28T05:31:56;1.60;10.70
24217;DHT22;12356;49.386;8.688;2023-02-28T05:34:27;1.70;10.70
24217;DHT22;12356;49.386;8.688;2023-02-28T05:36:57;1.70;10.60
24217;DHT22;12356;49.386;8.688;2023-02-28T05:39:28;1.70;10.40
24217;DHT22;12356;49.386;8.688;2023-02-28T05:41:58;1.70;10.60
24217;DHT22;12356;49.386;8.688;2023-02-28T05:44:29;1.70;10.30
24217;DHT22;12356;49.386;8.688;2023-02-28T05:46:59;1.70;10.10
24217;DHT22;12356;49.386;8.688;2023-02-28T05:49:30;1.60;10.00
24217;DHT22;12356;49.386;8.688;2023-02-28T05:52:00;1.60;10.80
24217;DHT22;12356;49.386;8.688;2023-02-28T05:54:31;1.60;10.50
24217;DHT22;12356;49.386;8.688;2023-02-28T05:57:02;1.70;10.50
24217;DHT22;12356;49.386;8.688;2023-02-28T05:59:32;1.70;9.90
24217;DHT22;12356;49.386;8.688;2023-02-28T06:02:03;1.60;9.80
24217;DHT22;12356;49.386;8.688;2023-02-28T06:04:33;1.60;10.20
24217;DHT22;12356;49.386;8.688;2023-02-28T06:07:04;1.60;10.10
24217;DHT22;12356;49.386;8.688;2023-02-28T06:09:35;1.60;10.20
24217;DHT22;12356;49.386;8.688;2023-02-28T06:12:06;1.60;10.50
24217;DHT22;12356;49.386;8.688;2023-02-28T06:14:37;1.60;10.50
24217;DHT22;12356;49.386;8.688;2023-02-28T06:17:09;1.70;10.20
24217;DHT22;12356;49.386;8.688;2023-02-28T06:19:39;1.70;10.10
24217;DHT22;12356;49.386;8.688;2023-02-28T06:22:11;1.70;9.90
24217;DHT22;12356;49.386;8.688;2023-02-28T06:24:42;1.70;9.90
24217;DHT22;12356;49.386;8.688;2023-02-28T06:27:12;1.70;10.30
24217;DHT22;12356;49.386;8.688;2023-02-28T06:29:43;1.70;10.30
24217;DHT22;12356;49.386;8.688;2023-02-28T06:32:13;1.70;10.10
24217;DHT22;12356;49.386;8.688;2023-02-28T06:34:44;1.70;10.00
24217;DHT22;12356;49.386;8.688;2023-02-28T06:37:14;1.80;9.90
24217;DHT22;12356;49.386;8.688;2023-02-28T06:39:45;1.80;9.80
24217;DHT22;12356;49.386;8.688;2023-02-28T06:42:15;1.80;9.60
24217;DHT22;12356;49.386;8.688;2023-02-28T06:44:46;1.80;9.90
24217;DHT22;12356;49.386;8.688;2023-02-28T06:47:16;1.70;10.00
24217;DHT22;12356;49.386;8.688;2023-02-28T06:49:47;1.70;9.90
24217;DHT22;12356;49.386;8.688;2023-02-28T06:52:18;1.70;10.00
24217;DHT22;12356;49.386;8.688;2023-02-28T06:54:48;1.70;10.20
24217;DHT22;12356;49.386;8.688;2023-02-28T06:57:30;1.70;10.60
24217;DHT22;12356;49.386;8.688;2023-02-28T07:00:07;1.70;10.20
24217;DHT22;12356;49.386;8.688;2023-02-28T07:02:39;1.80;10.20
24217;DHT22;12356;49.386;8.688;2023-02-28T07:05:09;1.80;9.80
24217;DHT22;12356;49.386;8.688;2023-02-28T07:07:40;1.90;9.70
24217;DHT22;12356;49.386;8.688;2023-02-28T07:10:13;1.90;9.90
24217;DHT22;12356;49.386;8.688;2023-02-28T07:12:47;1.90;9.80
24217;DHT22;12356;49.386;8.688;2023-02-28T07:15:17;1.90;10.00
24217;DHT22;12356;49.386;8.688;2023-02-28T07:17:48;2.00;9.90
24217;DHT22;12356;49.386;8.688;2023-02-28T07:20:18;2.00;9.70
24217;DHT22;12356;49.386;8.688;2023-02-28T07:22:49;2.00;9.70
24217;DHT22;12356;49.386;8.688;2023-02-28T07:25:28;1.90;9.50
24217;DHT22;12356;49.386;8.688;2023-02-28T07:27:59;2.00;9.20
24217;DHT22;12356;49.386;8.688;2023-02-28T07:30:30;2.10;9.30
24217;DHT22;12356;49.386;8.688;2023-02-28T07:33:01;2.10;9.30
24217;DHT22;12356;49.386;8.688;2023-02-28T07:35:31;2.00;9.00
24217;DHT22;12356;49.386;8.688;2023-02-28T07:38:02;2.00;9.30
24217;DHT22;12356;49.386;8.688;2023-02-28T07:40:34;2.00;8.80
24217;DHT22;12356;49.386;8.688;2023-02-28T07:43:05;2.00;9.30
24217;DHT22;12356;49.386;8.688;2023-02-28T07:45:35;2.10;9.10
24217;DHT22;12356;49.386;8.688;2023-02-28T07:48:06;2.00;9.10
24217;DHT22;12356;49.386;8.688;2023-02-28T07:50:36;2.00;9.70
24217;DHT22;12356;49.386;8.688;2023-02-28T07:53:07;2.00;9.30
24217;DHT22;12356;49.386;8.688;2023-02-28T07:55:37;2.00;9.20
24217;DHT22;12356;49.386;8.688;2023-02-28T07:58:08;2.00;9.20
24217;DHT22;12356;49.386;8.688;2023-02-28T08:00:38;2.10;9.00
24217;DHT22;12356;49.386;8.688;2023-02-28T08:03:11;2.20;9.00
24217;DHT22;12356;49.386;8.688;2023-02-28T08:05:42;2.20;8.70
24217;DHT22;12356;49.386;8.688;2023-02-28T08:08:14;2.40;9.00
24217;DHT22;12356;49.386;8.688;2023-02-28T08:10:44;2.50;9.00
24217;DHT22;12356;49.386;8.688;2023-02-28T08:13:15;2.40;8.10
24217;DHT22;12356;49.386;8.688;2023-02-28T08:15:45;2.50;8.30
24217;DHT22;12356;49.386;8.688;2023-02-28T08:18:17;2.50;7.70
24217;DHT22;12356;49.386;8.688;2023-02-28T08:20:48;2.60;7.40
24217;DHT22;12356;49.386;8.688;2023-02-28T08:23:19;2.60;7.40
24217;DHT22;12356;49.386;8.688;2023-02-28T08:25:56;2.60;7.40
24217;DHT22;12356;49.386;8.688;2023-02-28T08:28:26;2.60;7.40
24217;DHT22;12356;49.386;8.688;2023-02-28T08:30:57;2.50;7.40
24217;DHT22;12356;49.386;8.688;2023-02-28T08:33:28;2.50;7.50
24217;DHT22;12356;49.386;8.688;2023-02-28T08:35:59;2.60;7.70
24217;DHT22;12356;49.386;8.688;2023-02-28T08:38:29;2.70;7.50
24217;DHT22;12356;49.386;8.688;2023-02-28T08:41:02;2.70;7.50
24217;DHT22;12356;49.386;8.688;2023-02-28T08:43:34;2.80;7.40
24217;DHT22;12356;49.386;8.688;2023-02-28T08:46:05;2.80;7.40
24217;DHT22;12356;49.386;8.688;2023-02-28T08:48:36;3.00;7.40
24217;DHT22;12356;49.386;8.688;2023-02-28T08:51:15;3.10;6.90
24217;DHT22;12356;49.386;8.688;2023-02-28T08:53:54;3.20;6.70
24217;DHT22;12356;49.386;8.688;2023-02-28T08:56:26;3.20;6.30
24217;DHT22;12356;49.386;8.688;2023-02-28T08:58:57;3.20;5.80
24217;DHT22;12356;49.386;8.688;2023-02-28T09:01:28;3.10;5.50
24217;DHT22;12356;49.386;8.688;2023-02-28T09:03:59;3.20;6.40
24217;DHT22;12356;49.386;8.688;2023-02-28T09:06:29;3.10;6.00
24217;DHT22;12356;49.386;8.688;2023-02-28T09:09:00;3.20;5.40
24217;DHT22;12356;49.386;8.688;2023-02-28T09:11:32;3.20;5.80
24217;DHT22;12356;49.386;8.688;2023-02-28T09:14:02;3.30;5.70
24217;DHT22;12356;49.386;8.688;2023-02-28T09:16:34;3.30;5.60
24217;DHT22;12356;49.386;8.688;2023-02-28T09:19:04;3.40;6.20
24217;DHT22;12356;49.386;8.688;2023-02-28T09:21:36;3.60;5.60
24217;DHT22;12356;49.386;8.688;2023-02-28T09:24:06;3.60;4.50
24217;DHT22;12356;49.386;8.688;2023-02-28T09:26:37;3.70;5.60
24217;DHT22;12356;49.386;8.688;2023-02-28T09:29:08;3.70;4.90
24217;DHT22;12356;49.386;8.688;2023-02-28T09:31:39;3.70;4.80
24217;DHT22;12356;49.386;8.688;2023-02-28T09:34:10;3.80;4.40
24217;DHT22;12356;49.386;8.688;2023-02-28T09:36:40;3.80;3.80
24217;DHT22;12356;49.386;8.688;2023-02-28T09:39:12;3.90;5.10
24217;DHT22;12356;49.386;8.688;2023-02-28T09:41:47;3.90;4.90
24217;DHT22;12356;49.386;8.688;2023-02-28T09:46:59;4.00;4.70
24217;DHT22;12356;49.386;8.688;2023-02-28T09:49:43;4.10;3.50
24217;DHT22;12356;49.386;8.688;2023-02-28T09:52:23;4.10;3.40
24217;DHT22;12356;49.386;8.688;2023-02-28T09:55:04;4.10;2.20
24217;DHT22;12356;49.386;8.688;2023-02-28T09:57:41;4.10;1.90
24217;DHT22;12356;49.386;8.688;2023-02-28T10:00:28;4.20;2.30
24217;DHT22;12356;49.386;8.688;2023-02-28T10:03:36;4.20;1.80
24217;DHT22;12356;49.386;8.688;2023-02-28T10:06:11;4.20;2.40
24217;DHT22;12356;49.386;8.688;2023-02-28T10:08:57;4.20;1.90
24217;DHT22;12356;49.386;8.688;2023-02-28T10:11:36;4.20;2.30
24217;DHT22;12356;49.386;8.688;2023-02-28T10:14:23;4.20;2.40
24217;DHT22;12356;49.386;8.688;2023-02-28T10:17:17;4.30;2.90
24217;DHT22;12356;49.386;8.688;2023-02-28T10:20:01;4.30;1.70
24217;DHT22;12356;49.386;8.688;2023-02-28T10:22:52;4.40;2.30
24217;DHT22;12356;49.386;8.688;2023-02-28T10:25:28;4.40;1.30
24217;DHT22;12356;49.386;8.688;2023-02-28T10:30:42;4.50;1.30
24217;DHT22;12356;49.386;8.688;2023-02-28T10:35:59;4.60;1.00
24217;DHT22;12356;49.386;8.688;2023-02-28T10:38:35;4.60;1.00
24217;DHT22;12356;49.386;8.688;2023-02-28T10:41:14;4.50;1.00
24217;DHT22;12356;49.386;8.688;2023-02-28T10:43:45;4.50;1.00
24217;DHT22;12356;49.386;8.688;2023-02-28T10:46:18;4.50;1.00
24217;DHT22;12356;49.386;8.688;2023-02-28T10:49:02;4.60;1.00
24217;DHT22;12356;49.386;8.688;2023-02-28T10:51:39;4.70;1.00
24217;DHT22;12356;49.386;8.688;2023-02-28T10:54:22;4.80;1.00
24217;DHT22;12356;49.386;8.688;2023-02-28T10:59:51;4.80;1.00
24217;DHT22;12356;49.386;8.688;2023-02-28T11:05:02;4.70;1.00
24217;DHT22;12356;49.386;8.688;2023-02-28T11:07:32;4.70;1.00
24217;DHT22;12356;49.386;8.688;2023-02-28T11:10:04;4.70;1.00
24217;DHT22;12356;49.386;8.688;2023-02-28T11:12:38;4.80;1.00
24217;DHT22;12356;49.386;8.688;2023-02-28T11:15:30;4.90;1.00
24217;DHT22;12356;49.386;8.688;2023-02-28T11:20:41;5.20;1.00
24217;DHT22;12356;49.386;8.688;2023-02-28T11:23:13;5.30;1.00
24217;DHT22;12356;49.386;8.688;2023-02-28T11:25:50;5.30;1.00
24217;DHT22;12356;49.386;8.688;2023-02-28T11:36:35;5.40;1.00
24217;DHT22;12356;49.386;8.688;2023-02-28T11:39:12;5.60;1.00
24217;DHT22;12356;49.386;8.688;2023-02-28T11:41:55;5.70;1.00
24217;DHT22;12356;49.386;8.688;2023-02-28T11:45:08;5.70;1.00
24217;DHT22;12356;49.386;8.688;2023-02-28T11:47:57;5.60;1.00
24217;DHT22;12356;49.386;8.688;2023-02-28T11:53:51;5.60;1.00
24217;DHT22;12356;49.386;8.688;2023-02-28T11:56:43;5.60;1.00
24217;DHT22;12356;49.386;8.688;2023-02-28T12:02:43;5.70;1.00
24217;DHT22;12356;49.386;8.688;2023-02-28T12:23:20;5.90;1.00
24217;DHT22;12356;49.386;8.688;2023-02-28T12:28:46;6.00;1.00
24217;DHT22;12356;49.386;8.688;2023-02-28T12:34:28;6.10;1.00
24217;DHT22;12356;49.386;8.688;2023-02-28T12:37:06;6.10;1.00
24217;DHT22;12356;49.386;8.688;2023-02-28T12:39:45;6.10;1.00
24217;DHT22;12356;49.386;8.688;2023-02-28T12:42:28;6.10;1.00
24217;DHT22;12356;49.386;8.688;2023-02-28T12:45:03;6.10;1.00
24217;DHT22;12356;49.386;8.688;2023-02-28T12:47:34;6.10;1.00
24217;DHT22;12356;49.386;8.688;2023-02-28T12:50:07;6.10;1.00
24217;DHT22;12356;49.386;8.688;2023-02-28T12:58:28;6.10;1.00
24217;DHT22;12356;49.386;8.688;2023-02-28T13:09:58;6.10;1.00
24217;DHT22;12356;49.386;8.688;2023-02-28T13:12:29;6.00;1.00
24217;DHT22;12356;49.386;8.688;2023-02-28T13:15:26;5.90;1.00
24217;DHT22;12356;49.386;8.688;2023-02-28T13:17:59;5.90;1.00
24217;DHT22;12356;49.386;8.688;2023-02-28T13:20:35;5.90;1.00
24217;DHT22;12356;49.386;8.688;2023-02-28T13:26:17;6.10;1.00
24217;DHT22;12356;49.386;8.688;2023-02-28T13:31:23;6.30;1.00
24217;DHT22;12356;49.386;8.688;2023-02-28T13:36:31;6.30;1.00
24217;DHT22;12356;49.386;8.688;2023-02-28T13:39:03;6.30;1.00
24217;DHT22;12356;49.386;8.688;2023-02-28T13:41:53;6.40;1.00
24217;DHT22;12356;49.386;8.688;2023-02-28T13:44:24;6.50;1.00
24217;DHT22;12356;49.386;8.688;2023-02-28T13:49:28;6.60;1.00
24217;DHT22;12356;49.386;8.688;2023-02-28T14:06:52;6.60;1.00
24217;DHT22;12356;49.386;8.688;2023-02-28T14:09:41;6.60;1.00
24217;DHT22;12356;49.386;8.688;2023-02-28T14:18:31;6.70;1.00
24217;DHT22;12356;49.386;8.688;2023-02-28T14:21:27;6.50;1.00
24217;DHT22;12356;49.386;8.688;2023-02-28T14:26:59;6.40;1.00
24217;DHT22;12356;49.386;8.688;2023-02-28T14:32:41;6.40;1.00
24217;DHT22;12356;49.386;8.688;2023-02-28T14:35:27;6.40;1.00
24217;DHT22;12356;49.386;8.688;2023-02-28T14:38:07;6.40;1.00
24217;DHT22;12356;49.386;8.688;2023-02-28T14:40:45;6.40;1.00
24217;DHT22;12356;49.386;8.688;2023-02-28T14:43:21;6.40;1.00
24217;DHT22;12356;49.386;8.688;2023-02-28T14:45:58;6.50;1.00
24217;DHT22;12356;49.386;8.688;2023-02-28T14:48:29;6.40;1.00
24217;DHT22;12356;49.386;8.688;2023-02-28T14:51:01;6.30;1.00
24217;DHT22;12356;49.386;8.688;2023-02-28T14:53:36;6.30;1.00
24217;DHT22;12356;49.386;8.688;2023-02-28T14:56:22;6.20;1.00
24217;DHT22;12356;49.386;8.688;2023-02-28T14:58:55;6.20;1.00
24217;DHT22;12356;49.386;8.688;2023-02-28T15:01:26;6.20;1.00
24217;DHT22;12356;49.386;8.688;2023-02-28T15:04:06;6.10;1.00
24217;DHT22;12356;49.386;8.688;2023-02-28T15:06:36;6.10;1.00
24217;DHT22;12356;49.386;8.688;2023-02-28T15:09:17;6.10;1.00
24217;DHT22;12356;49.386;8.688;2023-02-28T15:11:49;6.10;1.00
24217;DHT22;12356;49.386;8.688;2023-02-28T15:14:21;6.10;1.00
24217;DHT22;12356;49.386;8.688;2023-02-28T15:16:57;6.10;1.00
24217;DHT22;12356;49.386;8.688;2023-02-28T15:19:36;6.20;1.00
24217;DHT22;12356;49.386;8.688;2023-02-28T15:22:16;6.20;1.00
24217;DHT22;12356;49.386;8.688;2023-02-28T15:24:50;6.20;1.00
24217;DHT22;12356;49.386;8.688;2023-02-28T15:27:32;6.20;1.00
24217;DHT22;12356;49.386;8.688;2023-02-28T15:30:11;6.10;1.00
24217;DHT22;12356;49.386;8.688;2023-02-28T15:32:45;6.20;1.00
24217;DHT22;12356;49.386;8.688;2023-02-28T15:35:32;6.20;1.00
24217;DHT22;12356;49.386;8.688;2023-02-28T15:38:22;6.20;1.00
24217;DHT22;12356;49.386;8.688;2023-02-28T15:40:58;6.10;1.00
24217;DHT22;12356;49.386;8.688;2023-02-28T15:43:37;6.10;1.00
24217;DHT22;12356;49.386;8.688;2023-02-28T15:46:10;6.10;1.00
24217;DHT22;12356;49.386;8.688;2023-02-28T15:48:46;6.10;1.00
24217;DHT22;12356;49.386;8.688;2023-02-28T15:51:24;6.00;1.00
24217;DHT22;12356;49.386;8.688;2023-02-28T15:54:00;6.10;1.00
24217;DHT22;12356;49.386;8.688;2023-02-28T15:56:33;6.10;1.00
24217;DHT22;12356;49.386;8.688;2023-02-28T15:59:06;6.00;1.00
24217;DHT22;12356;49.386;8.688;2023-02-28T16:01:38;6.00;1.00
24217;DHT22;12356;49.386;8.688;2023-02-28T16:04:18;6.00;1.00
24217;DHT22;12356;49.386;8.688;2023-02-28T16:09:29;6.00;1.00
24217;DHT22;12356;49.386;8.688;2023-02-28T16:12:02;5.90;1.00
24217;DHT22;12356;49.386;8.688;2023-02-28T16:14:32;5.80;1.00
24217;DHT22;12356;49.386;8.688;2023-02-28T16:17:07;5.80;1.00
24217;DHT22;12356;49.386;8.688;2023-02-28T16:19:39;5.80;1.00
24217;DHT22;12356;49.386;8.688;2023-02-28T16:22:09;5.80;1.00
24217;DHT22;12356;49.386;8.688;2023-02-28T16:24:40;5.70;1.00
24217;DHT22;12356;49.386;8.688;2023-02-28T16:27:31;5.70;1.00
24217;DHT22;12356;49.386;8.688;2023-02-28T16:30:04;5.70;1.00
24217;DHT22;12356;49.386;8.688;2023-02-28T16:32:35;5.60;1.00
24217;DHT22;12356;49.386;8.688;2023-02-28T16:35:10;5.60;1.00
24217;DHT22;12356;49.386;8.688;2023-02-28T16:37:41;5.60;1.00
24217;DHT22;12356;49.386;8.688;2023-02-28T16:40:17;5.60;1.00
24217;DHT22;12356;49.386;8.688;2023-02-28T16:42:51;5.50;1.00
24217;DHT22;12356;49.386;8.688;2023-02-28T16:45:23;5.50;1.00
24217;DHT22;12356;49.386;8.688;2023-02-28T16:47:55;5.60;1.00
24217;DHT22;12356;49.386;8.688;2023-02-28T16:50:28;5.50;1.00
24217;DHT22;12356;49.386;8.688;2023-02-28T16:52:59;5.50;1.00
24217;DHT22;12356;49.386;8.688;2023-02-28T16:55:30;5.60;1.00
24217;DHT22;12356;49.386;8.688;2023-02-28T16:58:01;5.60;1.00
24217;DHT22;12356;49.386;8.688;2023-02-28T17:00:32;5.50;1.00
24217;DHT22;12356;49.386;8.688;2023-02-28T17:03:03;5.50;1.00
24217;DHT22;12356;49.386;8.688;2023-02-28T17:05:37;5.50;1.00
24217;DHT22;12356;49.386;8.688;2023-02-28T17:08:09;5.50;1.00
24217;DHT22;12356;49.386;8.688;2023-02-28T17:10:39;5.40;1.00
24217;DHT22;12356;49.386;8.688;2023-02-28T17:13:10;5.40;1.00
24217;DHT22;12356;49.386;8.688;2023-02-28T17:15:41;5.40;1.00
24217;DHT22;12356;49.386;8.688;2023-02-28T17:18:15;5.40;1.00
24217;DHT22;12356;49.386;8.688;2023-02-28T17:20:48;5.30;1.00
24217;DHT22;12356;49.386;8.688;2023-02-28T17:23:18;5.40;1.00
24217;DHT22;12356;49.386;8.688;2023-02-28T17:25:49;5.40;1.00
24217;DHT22;12356;49.386;8.688;2023-02-28T17:28:23;5.30;1.00
24217;DHT22;12356;49.386;8.688;2023-02-28T17:30:54;5.30;1.00
24217;DHT22;12356;49.386;8.688;2023-02-28T17:33:25;5.30;1.00
24217;DHT22;12356;49.386;8.688;2023-02-28T17:35:55;5.40;1.00
24217;DHT22;12356;49.386;8.688;2023-02-28T17:38:26;5.40;1.00
24217;DHT22;12356;49.386;8.688;2023-02-28T17:40:56;5.30;1.00
24217;DHT22;12356;49.386;8.688;2023-02-28T17:43:27;5.30;1.00
24217;DHT22;12356;49.386;8.688;2023-02-28T17:45:58;5.30;1.00
24217;DHT22;12356;49.386;8.688;2023-02-28T17:48:29;5.30;1.00
24217;DHT22;12356;49.386;8.688;2023-02-28T17:51:00;5.30;1.00
24217;DHT22;12356;49.386;8.688;2023-02-28T17:53:30;5.30;1.00
24217;DHT22;12356;49.386;8.688;2023-02-28T17:56:01;5.30;1.00
24217;DHT22;12356;49.386;8.688;2023-02-28T17:58:31;5.30;1.00
24217;DHT22;12356;49.386;8.688;2023-02-28T18:01:02;5.30;1.00
24217;DHT22;12356;49.386;8.688;2023-02-28T18:03:33;5.20;1.00
24217;DHT22;12356;49.386;8.688;2023-02-28T18:06:03;5.20;1.00
24217;DHT22;12356;49.386;8.688;2023-02-28T18:08:34;5.20;1.00
24217;DHT22;12356;49.386;8.688;2023-02-28T18:11:05;5.10;1.00
24217;DHT22;12356;49.386;8.688;2023-02-28T18:13:36;5.10;1.80
24217;DHT22;12356;49.386;8.688;2023-02-28T18:16:08;5.10;2.20
24217;DHT22;12356;49.386;8.688;2023-02-28T18:18:38;5.10;2.70
24217;DHT22;12356;49.386;8.688;2023-02-28T18:21:11;5.10;2.80
24217;DHT22;12356;49.386;8.688;2023-02-28T18:23:42;5.00;1.50
24217;DHT22;12356;49.386;8.688;2023-02-28T18:26:20;5.00;1.20
24217;DHT22;12356;49.386;8.688;2023-02-28T18:28:51;5.00;1.40
24217;DHT22;12356;49.386;8.688;2023-02-28T18:31:21;5.10;1.00
24217;DHT22;12356;49.386;8.688;2023-02-28T18:33:52;5.00;2.40
24217;DHT22;12356;49.386;8.688;2023-02-28T18:36:23;5.00;1.30
24217;DHT22;12356;49.386;8.688;2023-02-28T18:38:53;5.00;1.10
24217;DHT22;12356;49.386;8.688;2023-02-28T18:41:24;4.90;1.20
24217;DHT22;12356;49.386;8.688;2023-02-28T18:43:55;4.80;1.00
24217;DHT22;12356;49.386;8.688;2023-02-28T18:46:25;4.90;1.30
24217;DHT22;12356;49.386;8.688;2023-02-28T18:48:56;4.80;1.20
24217;DHT22;12356;49.386;8.688;2023-02-28T18:51:28;4.80;1.50
24217;DHT22;12356;49.386;8.688;2023-02-28T18:53:58;4.70;1.30
24217;DHT22;12356;49.386;8.688;2023-02-28T18:56:29;4.60;1.30
24217;DHT22;12356;49.386;8.688;2023-02-28T18:58:59;4.60;1.20
24217;DHT22;12356;49.386;8.688;2023-02-28T19:01:30;4.60;1.30
24217;DHT22;12356;49.386;8.688;2023-02-28T19:04:03;4.60;1.50
24217;DHT22;12356;49.386;8.688;2023-02-28T19:06:34;4.60;1.20
24217;DHT22;12356;49.386;8.688;2023-02-28T19:09:07;4.60;1.20